createdAt,value
2018-04-16T00:00:39.979Z,14.24
2018-04-16T00:03:07.514Z,14.19
2018-04-16T00:05:35.029Z,14.16
2018-04-16T00:08:02.538Z,14.11
2018-04-16T00:10:30.066Z,14.06
2018-04-16T00:12:57.593Z,14.04
2018-04-16T00:15:25.099Z,14.01
2018-04-16T00:17:52.630Z,14.02
2018-04-16T00:20:20.134Z,14.02
2018-04-16T00:22:47.634Z,14.03
2018-04-16T00:25:15.162Z,14.00
2018-04-16T00:27:42.666Z,13.99
2018-04-16T00:30:10.162Z,13.98
2018-04-16T00:32:43.271Z,13.98
2018-04-16T00:35:16.477Z,13.95
2018-04-16T00:37:49.675Z,13.91
2018-04-16T00:40:22.742Z,13.93
2018-04-16T00:42:55.886Z,13.87
2018-04-16T00:45:28.989Z,13.90
2018-04-16T00:48:03.138Z,13.89
2018-04-16T00:50:36.099Z,13.87
2018-04-16T00:53:09.239Z,13.87
2018-04-16T00:55:42.411Z,13.87
2018-04-16T00:58:15.425Z,13.86
2018-04-16T01:00:48.464Z,13.83
2018-04-16T01:03:21.527Z,13.79
2018-04-16T01:05:54.628Z,13.73
2018-04-16T01:08:27.773Z,13.77
2018-04-16T01:11:00.765Z,13.77
2018-04-16T01:16:36.998Z,13.72
2018-04-16T01:19:10.226Z,13.71
2018-04-16T01:21:43.290Z,13.70
2018-04-16T01:27:20.577Z,13.62
2018-04-16T01:29:53.648Z,13.62
2018-04-16T01:32:26.790Z,13.61
2018-04-16T01:34:59.926Z,13.62
2018-04-16T01:37:32.959Z,13.62
2018-04-16T01:40:06.002Z,13.61
2018-04-16T01:42:40.352Z,13.61
2018-04-16T01:45:13.454Z,13.61
2018-04-16T01:47:46.513Z,13.60
2018-04-16T01:50:19.678Z,13.59
2018-04-16T01:52:52.674Z,13.58
2018-04-16T01:55:25.698Z,13.55
2018-04-16T02:01:04.863Z,13.56
2018-04-16T02:03:37.972Z,13.56
2018-04-16T02:06:11.127Z,13.54
2018-04-16T02:08:44.142Z,13.56
2018-04-16T02:11:17.300Z,13.51
2018-04-16T02:13:50.339Z,13.38
2018-04-16T02:16:23.501Z,13.51
2018-04-16T02:18:56.580Z,13.46
2018-04-16T02:21:29.702Z,13.45
2018-04-16T02:24:02.754Z,13.40
2018-04-16T02:26:35.869Z,13.35
2018-04-16T02:29:08.861Z,13.33
2018-04-16T02:31:42.020Z,13.33
2018-04-16T02:34:15.120Z,13.32
2018-04-16T02:36:48.270Z,13.29
2018-04-16T02:39:21.321Z,13.26
2018-04-16T02:41:54.509Z,13.24
2018-04-16T02:44:27.679Z,13.23
2018-04-16T02:47:00.801Z,13.22
2018-04-16T02:49:33.788Z,13.23
2018-04-16T02:52:07.018Z,13.24
2018-04-16T02:54:40.102Z,13.21
2018-04-16T03:00:17.880Z,13.08
2018-04-16T03:02:50.897Z,13.09
2018-04-16T03:05:24.072Z,13.12
2018-04-16T03:07:57.098Z,13.11
2018-04-16T03:10:31.310Z,13.13
2018-04-16T03:13:04.894Z,13.13
2018-04-16T03:15:37.909Z,13.13
2018-04-16T03:18:10.912Z,13.10
2018-04-16T03:20:44.060Z,13.05
2018-04-16T03:23:17.375Z,13.03
2018-04-16T03:25:50.537Z,13.06
2018-04-16T03:28:23.593Z,13.04
2018-04-16T03:30:57.006Z,13.03
2018-04-16T03:33:30.067Z,13.04
2018-04-16T03:36:03.267Z,13.09
2018-04-16T03:38:41.113Z,13.12
2018-04-16T03:41:14.320Z,13.10
2018-04-16T03:43:47.541Z,13.11
2018-04-16T03:46:21.176Z,13.11
2018-04-16T03:48:54.366Z,13.11
2018-04-16T03:51:24.530Z,13.10
2018-04-16T03:53:53.009Z,13.10
2018-04-16T03:56:20.967Z,13.10
2018-04-16T03:58:48.482Z,13.09
2018-04-16T04:01:16.907Z,13.09
2018-04-16T04:03:44.614Z,13.09
2018-04-16T04:06:12.214Z,13.10
2018-04-16T04:08:39.713Z,13.11
2018-04-16T04:11:07.254Z,13.11
2018-04-16T04:13:34.747Z,13.11
2018-04-16T04:16:02.247Z,13.11
2018-04-16T04:18:29.774Z,12.73
2018-04-16T04:20:57.265Z,13.10
2018-04-16T04:23:37.511Z,13.10
2018-04-16T04:26:16.782Z,13.09
2018-04-16T04:28:55.998Z,13.08
2018-04-16T04:31:23.501Z,13.03
2018-04-16T04:33:51.015Z,13.00
2018-04-16T04:36:18.546Z,12.97
2018-04-16T04:38:46.037Z,12.95
2018-04-16T04:41:13.542Z,12.95
2018-04-16T04:43:41.069Z,12.93
2018-04-16T04:46:08.561Z,12.92
2018-04-16T04:48:36.053Z,12.90
2018-04-16T04:51:03.565Z,12.89
2018-04-16T04:53:31.078Z,12.92
2018-04-16T04:55:58.623Z,12.97
2018-04-16T04:58:26.141Z,12.95
2018-04-16T05:00:53.727Z,12.96
2018-04-16T05:03:21.164Z,12.97
2018-04-16T05:05:48.692Z,13.02
2018-04-16T05:08:16.212Z,13.06
2018-04-16T05:10:43.714Z,13.03
2018-04-16T05:13:11.272Z,13.04
2018-04-16T05:15:38.771Z,13.02
2018-04-16T05:18:06.301Z,13.01
2018-04-16T05:20:33.822Z,13.00
2018-04-16T05:23:01.308Z,13.05
2018-04-16T05:25:28.806Z,13.07
2018-04-16T05:27:56.331Z,13.11
2018-04-16T05:30:23.835Z,13.14
2018-04-16T05:32:51.324Z,13.06
2018-04-16T05:35:18.900Z,13.08
2018-04-16T05:37:46.393Z,13.04
2018-04-16T05:40:13.884Z,13.02
2018-04-16T05:42:41.405Z,13.01
2018-04-16T05:45:08.902Z,12.97
2018-04-16T05:47:36.408Z,12.82
2018-04-16T05:50:03.926Z,12.96
2018-04-16T05:52:31.422Z,12.95
2018-04-16T05:54:58.908Z,12.94
2018-04-16T05:57:26.422Z,12.92
2018-04-16T05:59:53.925Z,12.92
2018-04-16T06:02:21.419Z,13.07
2018-04-16T06:04:48.947Z,13.16
2018-04-16T06:07:16.440Z,13.20
2018-04-16T06:09:43.928Z,13.15
2018-04-16T06:12:11.453Z,13.18
2018-04-16T06:14:38.953Z,13.16
2018-04-16T06:17:06.480Z,13.14
2018-04-16T06:19:34.003Z,13.19
2018-04-16T06:22:01.496Z,13.23
2018-04-16T06:24:28.998Z,13.25
2018-04-16T06:26:56.538Z,13.25
2018-04-16T06:29:24.036Z,13.23
2018-04-16T06:31:51.534Z,13.19
2018-04-16T06:34:19.049Z,13.19
2018-04-16T06:36:46.851Z,13.10
2018-04-16T06:39:14.350Z,13.07
2018-04-16T06:41:41.877Z,13.07
2018-04-16T06:44:09.382Z,13.05
2018-04-16T06:46:36.881Z,13.07
2018-04-16T06:49:04.401Z,13.11
2018-04-16T06:51:31.897Z,13.13
2018-04-16T06:53:59.413Z,13.17
2018-04-16T06:56:27.195Z,13.23
2018-04-16T06:58:54.781Z,13.20
2018-04-16T07:01:22.347Z,13.36
2018-04-16T07:03:49.921Z,13.48
2018-04-16T07:06:17.423Z,13.49
2018-04-16T07:08:45.947Z,13.56
2018-04-16T07:11:13.481Z,13.58
2018-04-16T07:13:40.982Z,13.56
2018-04-16T07:16:08.493Z,13.57
2018-04-16T07:18:36.046Z,13.59
2018-04-16T07:21:03.571Z,13.68
2018-04-16T07:23:31.083Z,13.73
2018-04-16T07:25:58.609Z,13.78
2018-04-16T07:28:26.111Z,13.55
2018-04-16T07:30:53.603Z,13.88
2018-04-16T07:33:21.137Z,13.78
2018-04-16T07:35:48.634Z,13.89
2018-04-16T07:38:16.128Z,13.95
2018-04-16T07:40:43.645Z,14.00
2018-04-16T07:43:11.206Z,14.03
2018-04-16T07:45:38.709Z,14.17
2018-04-16T07:48:06.417Z,14.27
2018-04-16T07:50:33.932Z,14.44
2018-04-16T07:53:01.421Z,14.52
2018-04-16T07:55:28.941Z,14.48
2018-04-16T07:57:56.449Z,14.64
2018-04-16T08:00:23.945Z,14.82
2018-04-16T08:02:51.465Z,14.96
2018-04-16T08:05:18.957Z,15.13
2018-04-16T08:07:47.343Z,15.15
2018-04-16T08:10:14.861Z,15.30
2018-04-16T08:12:42.434Z,15.31
2018-04-16T08:15:09.942Z,15.47
2018-04-16T08:17:37.635Z,15.57
2018-04-16T08:20:05.225Z,15.40
2018-04-16T08:22:33.609Z,15.37
2018-04-16T08:25:01.129Z,15.56
2018-04-16T08:27:28.631Z,15.78
2018-04-16T08:29:56.127Z,15.99
2018-04-16T08:32:23.731Z,15.94
2018-04-16T08:34:51.268Z,16.10
2018-04-16T08:37:18.784Z,16.34
2018-04-16T08:39:46.335Z,16.50
2018-04-16T08:42:13.875Z,16.57
2018-04-16T08:44:41.384Z,16.72
2018-04-16T08:47:08.926Z,16.66
2018-04-16T08:49:36.421Z,16.83
2018-04-16T08:52:04.018Z,17.18
2018-04-16T08:54:31.660Z,17.39
2018-04-16T08:57:00.805Z,17.39
2018-04-16T08:59:28.394Z,17.56
2018-04-16T09:01:55.989Z,17.65
2018-04-16T09:04:23.485Z,17.71
2018-04-16T09:06:50.985Z,17.31
2018-04-16T09:09:18.513Z,17.43
2018-04-16T09:11:46.277Z,17.27
2018-04-16T09:14:13.893Z,16.79
2018-04-16T09:16:41.416Z,16.87
2018-04-16T09:19:08.915Z,17.08
2018-04-16T09:21:36.418Z,17.21
2018-04-16T09:24:03.951Z,17.12
2018-04-16T09:26:31.451Z,16.98
2018-04-16T09:28:58.949Z,16.86
2018-04-16T09:31:26.474Z,16.88
2018-04-16T09:33:53.982Z,17.08
2018-04-16T09:36:21.476Z,17.04
2018-04-16T09:38:49.006Z,17.06
2018-04-16T09:41:16.502Z,16.86
2018-04-16T09:43:43.998Z,16.89
2018-04-16T09:46:12.982Z,16.88
2018-04-16T09:48:40.485Z,17.01
2018-04-16T09:51:07.977Z,16.79
2018-04-16T09:53:35.493Z,16.68
2018-04-16T09:56:02.990Z,16.78
2018-04-16T09:58:30.535Z,16.91
2018-04-16T10:00:59.276Z,17.08
2018-04-16T10:03:26.769Z,17.19
2018-04-16T10:05:54.283Z,17.35
2018-04-16T10:08:21.830Z,17.37
2018-04-16T10:10:49.333Z,17.36
2018-04-16T10:13:16.830Z,17.58
2018-04-16T10:15:44.470Z,17.85
2018-04-16T10:18:11.996Z,17.98
2018-04-16T10:20:39.515Z,18.17
2018-04-16T10:23:07.072Z,18.29
2018-04-16T10:25:34.632Z,18.39
2018-04-16T10:28:02.229Z,18.55
2018-04-16T10:30:29.840Z,18.51
2018-04-16T10:32:57.552Z,18.82
2018-04-16T10:35:25.137Z,18.72
2018-04-16T10:37:52.698Z,18.85
2018-04-16T10:40:20.215Z,18.91
2018-04-16T10:42:47.781Z,19.01
2018-04-16T10:45:15.385Z,19.47
2018-04-16T10:47:43.054Z,19.43
2018-04-16T10:50:10.585Z,19.55
2018-04-16T10:52:38.166Z,19.67
2018-04-16T10:55:05.662Z,19.64
2018-04-16T10:57:33.169Z,20.08
2018-04-16T11:00:00.759Z,20.23
2018-04-16T11:02:28.327Z,20.39
2018-04-16T11:04:55.975Z,20.22
2018-04-16T11:07:23.639Z,20.33
2018-04-16T11:09:52.712Z,20.68
2018-04-16T11:12:20.211Z,20.34
2018-04-16T11:14:47.797Z,20.52
2018-04-16T11:17:15.333Z,20.54
2018-04-16T11:19:42.938Z,20.83
2018-04-16T11:22:10.477Z,21.16
2018-04-16T11:24:37.970Z,21.32
2018-04-16T11:27:06.423Z,21.40
2018-04-16T11:29:33.957Z,21.42
2018-04-16T11:32:02.264Z,21.21
2018-04-16T11:34:29.766Z,20.95
2018-04-16T11:36:57.309Z,20.74
2018-04-16T11:39:25.410Z,20.62
2018-04-16T11:41:52.935Z,20.78
2018-04-16T11:44:20.456Z,20.79
2018-04-16T11:46:47.955Z,20.56
2018-04-16T11:49:15.447Z,20.32
2018-04-16T11:51:43.284Z,19.62
2018-04-16T11:54:10.982Z,19.91
2018-04-16T11:56:38.505Z,20.18
2018-04-16T11:59:06.042Z,20.16
2018-04-16T12:01:33.543Z,19.74
2018-04-16T12:04:01.046Z,20.00
2018-04-16T12:06:28.571Z,20.26
2018-04-16T12:08:56.065Z,20.80
2018-04-16T12:11:23.562Z,21.30
2018-04-16T12:13:51.115Z,21.68
2018-04-16T12:16:18.641Z,21.13
2018-04-16T12:18:46.151Z,20.97
2018-04-16T12:21:13.682Z,21.19
2018-04-16T12:23:41.181Z,21.43
2018-04-16T12:26:08.696Z,21.32
2018-04-16T12:28:36.229Z,21.51
2018-04-16T12:31:03.729Z,21.65
2018-04-16T12:33:31.228Z,21.46
2018-04-16T12:35:58.754Z,21.49
2018-04-16T12:38:26.262Z,21.50
2018-04-16T12:40:53.790Z,21.57
2018-04-16T12:43:21.319Z,21.32
2018-04-16T12:45:48.813Z,21.75
2018-04-16T12:48:16.324Z,21.55
2018-04-16T12:50:43.847Z,21.20
2018-04-16T12:53:12.234Z,21.04
2018-04-16T12:55:40.078Z,20.97
2018-04-16T12:58:07.603Z,20.40
2018-04-16T13:00:35.104Z,20.37
2018-04-16T13:03:02.606Z,20.58
2018-04-16T13:05:30.126Z,20.60
2018-04-16T13:07:57.624Z,20.69
2018-04-16T13:10:25.138Z,20.78
2018-04-16T13:12:52.671Z,20.51
2018-04-16T13:15:20.170Z,20.70
2018-04-16T13:17:47.706Z,20.65
2018-04-16T13:20:15.286Z,20.68
2018-04-16T13:22:42.874Z,20.72
2018-04-16T13:25:10.453Z,20.72
2018-04-16T13:27:38.034Z,20.55
2018-04-16T13:30:05.542Z,20.53
2018-04-16T13:32:33.045Z,20.62
2018-04-16T13:35:00.566Z,20.62
2018-04-16T13:37:28.075Z,20.68
2018-04-16T13:39:55.584Z,20.43
2018-04-16T13:42:23.317Z,20.40
2018-04-16T13:44:50.861Z,20.12
2018-04-16T13:47:18.355Z,20.24
2018-04-16T13:49:45.915Z,20.10
2018-04-16T13:52:13.409Z,19.94
2018-04-16T13:54:40.908Z,20.08
2018-04-16T13:57:08.426Z,20.17
2018-04-16T13:59:35.920Z,20.17
2018-04-16T14:02:03.456Z,19.95
2018-04-16T14:04:31.001Z,20.16
2018-04-16T14:06:58.503Z,20.53
2018-04-16T14:09:26.001Z,20.65
2018-04-16T14:11:53.716Z,20.71
2018-04-16T14:14:21.208Z,20.83
2018-04-16T14:16:48.836Z,21.01
2018-04-16T14:19:16.433Z,21.04
2018-04-16T14:21:43.964Z,20.84
2018-04-16T14:24:11.469Z,20.74
2018-04-16T14:26:39.074Z,20.82
2018-04-16T14:29:06.642Z,20.79
2018-04-16T14:31:34.236Z,20.64
2018-04-16T14:34:01.854Z,20.51
2018-04-16T14:36:29.348Z,20.30
2018-04-16T14:38:58.305Z,20.00
2018-04-16T14:41:25.966Z,19.62
2018-04-16T14:43:53.449Z,19.71
2018-04-16T14:46:20.952Z,19.98
2018-04-16T14:48:48.513Z,19.77
2018-04-16T14:51:16.026Z,19.85
2018-04-16T14:53:43.613Z,19.52
2018-04-16T14:56:11.208Z,19.38
2018-04-16T14:58:38.734Z,19.58
2018-04-16T15:01:06.320Z,19.52
2018-04-16T15:03:33.916Z,19.69
2018-04-16T15:06:01.411Z,19.86
2018-04-16T15:08:29.016Z,19.84
2018-04-16T15:10:56.570Z,20.05
2018-04-16T15:13:24.159Z,19.99
2018-04-16T15:15:51.759Z,19.83
2018-04-16T15:18:19.362Z,19.61
2018-04-16T15:20:47.721Z,19.50
2018-04-16T15:23:16.216Z,19.41
2018-04-16T15:25:43.878Z,19.48
2018-04-16T15:28:11.415Z,19.20
2018-04-16T15:30:38.929Z,18.97
2018-04-16T15:33:06.499Z,18.62
2018-04-16T15:35:33.994Z,18.59
2018-04-16T15:38:01.495Z,18.58
2018-04-16T15:40:29.009Z,18.50
2018-04-16T15:42:56.498Z,18.50
2018-04-16T15:45:24.007Z,18.50
2018-04-16T15:47:51.602Z,18.76
2018-04-16T15:50:19.181Z,18.90
2018-04-16T15:52:47.646Z,18.65
2018-04-16T15:55:15.175Z,18.62
2018-04-16T15:57:42.677Z,18.56
2018-04-16T16:00:10.238Z,18.46
2018-04-16T16:02:37.786Z,18.56
2018-04-16T16:05:05.407Z,18.58
2018-04-16T16:07:32.990Z,18.55
2018-04-16T16:10:00.616Z,18.60
2018-04-16T16:12:28.185Z,18.73
2018-04-16T16:14:55.750Z,18.75
2018-04-16T16:17:23.308Z,18.73
2018-04-16T16:19:50.796Z,18.50
2018-04-16T16:22:18.361Z,18.35
2018-04-16T16:24:45.906Z,18.15
2018-04-16T16:27:13.449Z,18.16
2018-04-16T16:29:40.949Z,18.17
2018-04-16T16:32:08.465Z,18.12
2018-04-16T16:34:36.025Z,18.10
2018-04-16T16:37:03.496Z,18.07
2018-04-16T16:39:31.046Z,18.06
2018-04-16T16:41:58.549Z,18.08
2018-04-16T16:44:26.058Z,18.13
2018-04-16T16:46:53.578Z,18.08
2018-04-16T16:49:21.073Z,18.02
2018-04-16T16:51:48.561Z,17.94
2018-04-16T16:54:16.090Z,17.82
2018-04-16T16:56:43.597Z,17.69
2018-04-16T16:59:11.089Z,17.59
2018-04-16T17:01:38.610Z,17.46
2018-04-16T17:04:06.113Z,17.33
2018-04-16T17:06:33.610Z,17.20
2018-04-16T17:09:01.128Z,17.06
2018-04-16T17:11:28.636Z,16.98
2018-04-16T17:13:56.176Z,16.95
2018-04-16T17:16:23.693Z,16.89
2018-04-16T17:18:51.187Z,16.85
2018-04-16T17:21:18.683Z,16.81
2018-04-16T17:23:46.201Z,16.73
2018-04-16T17:26:13.702Z,16.72
2018-04-16T17:28:41.193Z,16.72
2018-04-16T17:31:08.729Z,16.71
2018-04-16T17:33:36.220Z,16.72
2018-04-16T17:36:03.705Z,16.71
2018-04-16T17:38:31.230Z,16.71
2018-04-16T17:40:58.718Z,16.66
2018-04-16T17:43:26.204Z,16.60
2018-04-16T17:45:53.721Z,16.52
2018-04-16T17:48:21.282Z,16.48
2018-04-16T17:50:48.750Z,16.44
2018-04-16T17:53:16.273Z,16.40
2018-04-16T17:55:43.912Z,16.36
2018-04-16T17:58:11.390Z,16.25
2018-04-16T18:00:38.903Z,16.16
2018-04-16T18:03:06.415Z,16.11
2018-04-16T18:05:33.923Z,16.04
2018-04-16T18:08:01.433Z,16.01
2018-04-16T18:10:28.931Z,15.92
2018-04-16T18:12:56.417Z,15.86
2018-04-16T18:15:24.095Z,15.78
2018-04-16T18:17:51.722Z,15.68
2018-04-16T18:20:19.419Z,15.62
2018-04-16T18:22:47.117Z,15.55
2018-04-16T18:25:14.609Z,15.51
2018-04-16T18:27:42.108Z,15.46
2018-04-16T18:30:09.638Z,15.38
2018-04-16T18:32:37.138Z,15.34
2018-04-16T18:35:04.637Z,15.28
2018-04-16T18:37:32.157Z,15.28
2018-04-16T18:39:59.661Z,15.25
2018-04-16T18:42:27.158Z,15.21
2018-04-16T18:44:54.682Z,15.17
2018-04-16T18:47:22.205Z,15.13
2018-04-16T18:49:49.709Z,15.10
2018-04-16T18:52:17.241Z,15.07
2018-04-16T18:54:44.801Z,15.03
2018-04-16T18:57:12.288Z,14.95
2018-04-16T18:59:39.856Z,14.91
2018-04-16T19:02:07.346Z,14.86
2018-04-16T19:04:34.838Z,14.78
2018-04-16T19:07:02.350Z,14.69
2018-04-16T19:09:29.843Z,14.56
2018-04-16T19:11:57.333Z,14.45
2018-04-16T19:14:24.853Z,14.37
2018-04-16T19:16:52.345Z,14.27
2018-04-16T19:19:19.841Z,14.14
2018-04-16T19:21:52.857Z,14.04
2018-04-16T19:24:20.374Z,13.92
2018-04-16T19:26:53.542Z,13.81
2018-04-16T19:29:21.032Z,13.71
2018-04-16T19:31:48.705Z,13.61
2018-04-16T19:34:21.989Z,13.53
2018-04-16T19:36:49.481Z,13.48
2018-04-16T19:39:16.983Z,13.39
2018-04-16T19:41:50.101Z,13.33
2018-04-16T19:44:17.596Z,13.27
2018-04-16T19:46:45.086Z,13.18
2018-04-16T19:49:19.373Z,13.18
2018-04-16T19:51:46.892Z,13.20
2018-04-16T19:54:14.518Z,13.07
2018-04-16T19:56:47.597Z,13.19
2018-04-16T19:59:15.083Z,13.22
2018-04-16T20:01:42.580Z,13.22
2018-04-16T20:04:10.097Z,13.21
2018-04-16T20:06:37.597Z,13.21
2018-04-16T20:09:06.038Z,13.28
2018-04-16T20:11:33.574Z,13.37
2018-04-16T20:14:01.207Z,13.47
2018-04-16T20:16:28.704Z,13.53
2018-04-16T20:18:56.242Z,13.57
2018-04-16T20:21:23.753Z,13.58
2018-04-16T20:23:51.284Z,13.58
2018-04-16T20:26:18.805Z,13.57
2018-04-16T20:28:46.313Z,13.56
2018-04-16T20:31:13.826Z,13.53
2018-04-16T20:33:41.350Z,13.56
2018-04-16T20:36:08.890Z,13.58
2018-04-16T20:38:36.393Z,13.60
2018-04-16T20:41:03.924Z,13.65
2018-04-16T20:43:31.443Z,13.67
2018-04-16T20:45:58.975Z,13.68
2018-04-16T20:48:26.510Z,13.68
2018-04-16T20:50:54.026Z,13.70
2018-04-16T20:53:21.538Z,13.70
2018-04-16T20:55:49.062Z,13.66
2018-04-16T20:58:16.604Z,13.67
2018-04-16T21:00:44.101Z,13.64
2018-04-16T21:03:11.634Z,13.59
2018-04-16T21:05:39.181Z,13.40
2018-04-16T21:08:06.728Z,13.45
2018-04-16T21:10:34.311Z,13.39
2018-04-16T21:13:01.882Z,13.33
2018-04-16T21:15:29.449Z,13.27
2018-04-16T21:17:57.986Z,13.18
2018-04-16T21:20:25.557Z,13.13
2018-04-16T21:22:53.109Z,13.09
2018-04-16T21:25:20.685Z,13.02
2018-04-16T21:27:48.247Z,13.04
2018-04-16T21:30:15.810Z,13.09
2018-04-16T21:32:43.393Z,13.13
2018-04-16T21:35:10.996Z,13.17
2018-04-16T21:37:38.549Z,13.19
2018-04-16T21:40:06.133Z,13.22
2018-04-16T21:42:33.685Z,13.25
2018-04-16T21:45:01.245Z,13.26
2018-04-16T21:47:28.833Z,13.29
2018-04-16T21:49:56.396Z,13.31
2018-04-16T21:52:23.961Z,13.30
2018-04-16T21:54:51.545Z,13.29
2018-04-16T21:57:19.134Z,13.29
2018-04-16T21:59:46.692Z,13.29
2018-04-16T22:02:14.304Z,13.29
2018-04-16T22:04:41.868Z,13.30
2018-04-16T22:07:10.613Z,13.30
2018-04-16T22:09:38.192Z,13.31
2018-04-16T22:12:05.739Z,13.31
2018-04-16T22:14:33.349Z,13.30
2018-04-16T22:17:00.945Z,13.27
2018-04-16T22:19:28.506Z,13.25
2018-04-16T22:21:56.060Z,13.21
2018-04-16T22:24:23.647Z,13.21
2018-04-16T22:26:51.207Z,13.24
2018-04-16T22:29:18.756Z,13.24
2018-04-16T22:31:46.338Z,13.24
2018-04-16T22:34:13.897Z,13.23
2018-04-16T22:36:41.462Z,13.23
2018-04-16T22:39:09.037Z,13.22
2018-04-16T22:41:36.585Z,13.22
2018-04-16T22:44:04.143Z,13.22
2018-04-16T22:46:31.728Z,13.20
2018-04-16T22:48:59.280Z,13.18
2018-04-16T22:51:26.832Z,13.15
2018-04-16T22:53:54.424Z,13.14
2018-04-16T22:56:21.976Z,13.13
2018-04-16T22:58:49.532Z,13.11
2018-04-16T23:01:17.113Z,13.10
2018-04-16T23:03:44.680Z,13.12
2018-04-16T23:06:12.304Z,13.09
2018-04-16T23:08:39.890Z,13.06
2018-04-16T23:11:07.453Z,13.08
2018-04-16T23:13:35.026Z,13.07
2018-04-16T23:16:02.605Z,13.04
2018-04-16T23:18:30.165Z,13.03
2018-04-16T23:20:57.716Z,13.01
2018-04-16T23:23:25.311Z,12.98
2018-04-16T23:25:52.882Z,12.93
2018-04-16T23:28:20.437Z,12.86
2018-04-16T23:30:48.024Z,12.82
2018-04-16T23:33:15.586Z,12.78
2018-04-16T23:35:43.177Z,12.71
2018-04-16T23:38:10.760Z,12.62
2018-04-16T23:40:38.313Z,12.54
2018-04-16T23:43:05.878Z,12.48
2018-04-16T23:45:33.465Z,12.43
2018-04-16T23:48:01.035Z,12.35
2018-04-16T23:50:28.598Z,12.26
2018-04-16T23:52:56.181Z,12.21
2018-04-16T23:55:23.736Z,12.16
2018-04-16T23:57:51.294Z,12.14
